DAL8545 KLGA-KDCA
Flight info
| Callsign | DAL8545 |
|---|---|
| Flight time | 0h 46m |
| Altitude | 32000 |
| Route | DCT BIGGY Q75 MXE CLIPR3 |
| Aircraft | A319/M-VGD/C |
Departure
| Time | 2026-04-25 23:52 |
|---|---|
| Airport | LaGuardia Airport (KLGA) |
Arrival
| Time | 2026-04-26 00:38 |
|---|---|
| Airport | Ronald Reagan Washington National Airport (KDCA) |
| Time | Latitude | Longitude | Altitude | Speed | Heading |
|---|---|---|---|---|---|
| 2026-04-25 23:28 | 40.77306 | -73.86556 | 21 ft | 0 kts | 148° |
| 2026-04-25 23:44 | 40.77317 | -73.86565 | 23 ft | 2 kts | 148° |
| 2026-04-25 23:44 | 40.77331 | -73.86576 | 21 ft | 2 kts | 133° |
| 2026-04-25 23:44 | 40.77337 | -73.86594 | 23 ft | 1 kts | 56° |
| 2026-04-25 23:44 | 40.77338 | -73.86593 | 23 ft | 0 kts | 56° |
| 2026-04-25 23:45 | 40.77339 | -73.86591 | 23 ft | 0 kts | 56° |
| 2026-04-25 23:47 | 40.77339 | -73.86590 | 23 ft | 1 kts | 56° |
| 2026-04-25 23:47 | 40.77344 | -73.86581 | 22 ft | 0 kts | 56° |
| 2026-04-25 23:48 | 40.77363 | -73.86567 | 20 ft | 12 kts | 23° |
| 2026-04-25 23:48 | 40.77469 | -73.86576 | 20 ft | 17 kts | 349° |
| 2026-04-25 23:48 | 40.77556 | -73.86673 | 21 ft | 17 kts | 301° |
| 2026-04-25 23:48 | 40.77622 | -73.86812 | 20 ft | 18 kts | 303° |
| 2026-04-25 23:49 | 40.77692 | -73.86957 | 20 ft | 19 kts | 301° |
| 2026-04-25 23:49 | 40.77763 | -73.87110 | 20 ft | 20 kts | 300° |
| 2026-04-25 23:49 | 40.77837 | -73.87271 | 22 ft | 21 kts | 303° |
| 2026-04-25 23:49 | 40.77917 | -73.87434 | 20 ft | 22 kts | 302° |
| 2026-04-25 23:50 | 40.77999 | -73.87613 | 19 ft | 23 kts | 301° |
| 2026-04-25 23:50 | 40.78083 | -73.87790 | 20 ft | 22 kts | 303° |
| 2026-04-25 23:50 | 40.78139 | -73.87870 | 19 ft | 1 kts | 329° |
| 2026-04-25 23:50 | 40.78143 | -73.87873 | 19 ft | 0 kts | 331° |
| 2026-04-25 23:51 | 40.78144 | -73.87873 | 19 ft | 0 kts | 332° |
| 2026-04-25 23:51 | 40.78150 | -73.87876 | 19 ft | 3 kts | 341° |
| 2026-04-25 23:52 | 40.78190 | -73.87866 | 19 ft | 11 kts | 29° |
| 2026-04-25 23:52 | 40.78122 | -73.87628 | 18 ft | 59 kts | 122° |
| 2026-04-25 23:52 | 40.77751 | -73.86862 | 47 ft | 135 kts | 122° |
| 2026-04-25 23:52 | 40.77353 | -73.86006 | 867 ft | 113 kts | 118° |
| 2026-04-25 23:53 | 40.76895 | -73.85002 | 1139 ft | 152 kts | 123° |
| 2026-04-25 23:53 | 40.75894 | -73.84048 | 1374 ft | 192 kts | 160° |
| 2026-04-25 23:53 | 40.74587 | -73.83606 | 2075 ft | 208 kts | 161° |
| 2026-04-25 23:53 | 40.73166 | -73.83138 | 3112 ft | 210 kts | 164° |
| 2026-04-25 23:54 | 40.71691 | -73.82868 | 4084 ft | 217 kts | 185° |
| 2026-04-25 23:54 | 40.70291 | -73.83592 | 5038 ft | 223 kts | 218° |
| 2026-04-25 23:54 | 40.69160 | -73.84946 | 5933 ft | 222 kts | 226° |
| 2026-04-25 23:54 | 40.68233 | -73.86596 | 6366 ft | 227 kts | 240° |
| 2026-04-25 23:55 | 40.67753 | -73.88537 | 7458 ft | 221 kts | 259° |
| 2026-04-25 23:55 | 40.67714 | -73.90573 | 8387 ft | 228 kts | 274° |
| 2026-04-25 23:55 | 40.68168 | -73.92688 | 8949 ft | 254 kts | 293° |
| 2026-04-25 23:55 | 40.69137 | -73.94796 | 9087 ft | 291 kts | 298° |
| 2026-04-25 23:56 | 40.70461 | -73.97085 | 9022 ft | 332 kts | 313° |
| 2026-04-25 23:56 | 40.72285 | -73.98878 | 10411 ft | 320 kts | 320° |
| 2026-04-25 23:56 | 40.73856 | -74.00899 | 11412 ft | 314 kts | 302° |
| 2026-04-25 23:56 | 40.74779 | -74.03530 | 12286 ft | 314 kts | 283° |
| 2026-04-25 23:57 | 40.74944 | -74.06403 | 13096 ft | 319 kts | 265° |
| 2026-04-25 23:57 | 40.74340 | -74.09239 | 13881 ft | 327 kts | 248° |
| 2026-04-25 23:57 | 40.73350 | -74.11974 | 14599 ft | 331 kts | 246° |
| 2026-04-25 23:57 | 40.72331 | -74.14754 | 15340 ft | 334 kts | 246° |
| 2026-04-25 23:58 | 40.71318 | -74.17523 | 16074 ft | 337 kts | 246° |
| 2026-04-25 23:58 | 40.70297 | -74.20324 | 16799 ft | 340 kts | 247° |
| 2026-04-25 23:58 | 40.69270 | -74.23148 | 17523 ft | 343 kts | 247° |
| 2026-04-25 23:58 | 40.68233 | -74.25999 | 18207 ft | 347 kts | 248° |
| 2026-04-25 23:59 | 40.67184 | -74.28881 | 18836 ft | 350 kts | 247° |
| 2026-04-25 23:59 | 40.66125 | -74.31785 | 19465 ft | 353 kts | 247° |
| 2026-04-25 23:59 | 40.65061 | -74.34698 | 20108 ft | 355 kts | 246° |
| 2026-04-25 23:59 | 40.63997 | -74.37605 | 20765 ft | 357 kts | 246° |
| 2026-04-26 00:00 | 40.62913 | -74.40562 | 21429 ft | 359 kts | 246° |
| 2026-04-26 00:00 | 40.61828 | -74.43525 | 22075 ft | 361 kts | 246° |
| 2026-04-26 00:00 | 40.60796 | -74.46341 | 22659 ft | 363 kts | 245° |
| 2026-04-26 00:00 | 40.59688 | -74.49369 | 23296 ft | 365 kts | 245° |
| 2026-04-26 00:01 | 40.58582 | -74.52384 | 23866 ft | 367 kts | 245° |
| 2026-04-26 00:01 | 40.57469 | -74.55420 | 24360 ft | 369 kts | 245° |
| 2026-04-26 00:01 | 40.56350 | -74.58463 | 24873 ft | 370 kts | 245° |
| 2026-04-26 00:01 | 40.55224 | -74.61517 | 25407 ft | 371 kts | 245° |
| 2026-04-26 00:02 | 40.54094 | -74.64576 | 25909 ft | 373 kts | 245° |
| 2026-04-26 00:02 | 40.52959 | -74.67651 | 26382 ft | 374 kts | 245° |
| 2026-04-26 00:02 | 40.51821 | -74.70733 | 26854 ft | 376 kts | 245° |
| 2026-04-26 00:02 | 40.50676 | -74.73827 | 27319 ft | 377 kts | 245° |
| 2026-04-26 00:03 | 40.49523 | -74.76936 | 27784 ft | 379 kts | 245° |
| 2026-04-26 00:03 | 40.48366 | -74.80057 | 28247 ft | 380 kts | 245° |
| 2026-04-26 00:03 | 40.47205 | -74.83184 | 28704 ft | 382 kts | 245° |
| 2026-04-26 00:03 | 40.46033 | -74.86327 | 29153 ft | 384 kts | 245° |
| 2026-04-26 00:04 | 40.44859 | -74.89478 | 29593 ft | 385 kts | 245° |
| 2026-04-26 00:04 | 40.43681 | -74.92643 | 30017 ft | 387 kts | 245° |
| 2026-04-26 00:04 | 40.42463 | -74.95808 | 30388 ft | 390 kts | 242° |
| 2026-04-26 00:04 | 40.40904 | -74.98741 | 30729 ft | 395 kts | 233° |
| 2026-04-26 00:05 | 40.39036 | -75.01409 | 31062 ft | 398 kts | 230° |
| 2026-04-26 00:05 | 40.37137 | -75.04070 | 31392 ft | 400 kts | 230° |
| 2026-04-26 00:05 | 40.35233 | -75.06734 | 31678 ft | 402 kts | 230° |
| 2026-04-26 00:05 | 40.33319 | -75.09415 | 31991 ft | 403 kts | 230° |
| 2026-04-26 00:06 | 40.31409 | -75.12085 | 32062 ft | 395 kts | 230° |
| 2026-04-26 00:06 | 40.29594 | -75.14619 | 32077 ft | 378 kts | 230° |
| 2026-04-26 00:06 | 40.27818 | -75.17101 | 32075 ft | 370 kts | 230° |
| 2026-04-26 00:07 | 40.24324 | -75.21989 | 32076 ft | 367 kts | 230° |
| 2026-04-26 00:07 | 40.20846 | -75.26857 | 32077 ft | 366 kts | 230° |
| 2026-04-26 00:08 | 40.17364 | -75.31722 | 32084 ft | 366 kts | 230° |
| 2026-04-26 00:08 | 40.13868 | -75.36577 | 32081 ft | 367 kts | 230° |
| 2026-04-26 00:09 | 40.10457 | -75.41314 | 32079 ft | 383 kts | 230° |
| 2026-04-26 00:09 | 40.06717 | -75.46487 | 32051 ft | 394 kts | 230° |
| 2026-04-26 00:09 | 40.04866 | -75.49038 | 31813 ft | 382 kts | 230° |
| 2026-04-26 00:10 | 40.03077 | -75.51516 | 30665 ft | 385 kts | 230° |
| 2026-04-26 00:10 | 40.01248 | -75.54053 | 29602 ft | 383 kts | 230° |
| 2026-04-26 00:10 | 39.99426 | -75.56575 | 28510 ft | 380 kts | 230° |
| 2026-04-26 00:10 | 39.97615 | -75.59074 | 27479 ft | 377 kts | 230° |
| 2026-04-26 00:11 | 39.95825 | -75.61542 | 26501 ft | 374 kts | 229° |
| 2026-04-26 00:11 | 39.94055 | -75.63981 | 25870 ft | 364 kts | 229° |
| 2026-04-26 00:11 | 39.92348 | -75.66334 | 25460 ft | 350 kts | 231° |
| 2026-04-26 00:11 | 39.90908 | -75.68798 | 25121 ft | 338 kts | 238° |
| 2026-04-26 00:12 | 39.89591 | -75.71370 | 25031 ft | 343 kts | 238° |
| 2026-04-26 00:12 | 39.88252 | -75.73952 | 25030 ft | 345 kts | 238° |
| 2026-04-26 00:12 | 39.86900 | -75.76541 | 24920 ft | 344 kts | 238° |
| 2026-04-26 00:12 | 39.85563 | -75.79090 | 24278 ft | 339 kts | 238° |
| 2026-04-26 00:13 | 39.84242 | -75.81614 | 23593 ft | 335 kts | 238° |
| 2026-04-26 00:13 | 39.83013 | -75.83966 | 22825 ft | 332 kts | 238° |
| 2026-04-26 00:13 | 39.81735 | -75.86411 | 22043 ft | 329 kts | 238° |
| 2026-04-26 00:13 | 39.80474 | -75.88818 | 21304 ft | 326 kts | 238° |
| 2026-04-26 00:14 | 39.79203 | -75.91244 | 20576 ft | 323 kts | 239° |
| 2026-04-26 00:14 | 39.77941 | -75.93658 | 19852 ft | 321 kts | 239° |
| 2026-04-26 00:14 | 39.76690 | -75.96046 | 19185 ft | 318 kts | 239° |
| 2026-04-26 00:14 | 39.75443 | -75.98421 | 18929 ft | 319 kts | 239° |
| 2026-04-26 00:15 | 39.74186 | -76.00817 | 18701 ft | 321 kts | 239° |
| 2026-04-26 00:15 | 39.72933 | -76.03205 | 18470 ft | 320 kts | 239° |
| 2026-04-26 00:15 | 39.71749 | -76.05460 | 18244 ft | 319 kts | 239° |
| 2026-04-26 00:15 | 39.70548 | -76.07744 | 17982 ft | 318 kts | 239° |
| 2026-04-26 00:16 | 39.69315 | -76.10079 | 17719 ft | 318 kts | 239° |
| 2026-04-26 00:16 | 39.68066 | -76.12442 | 17458 ft | 317 kts | 239° |
| 2026-04-26 00:16 | 39.66832 | -76.14784 | 17215 ft | 312 kts | 239° |
| 2026-04-26 00:16 | 39.65617 | -76.17088 | 16877 ft | 308 kts | 239° |
| 2026-04-26 00:17 | 39.64418 | -76.19366 | 16513 ft | 304 kts | 239° |
| 2026-04-26 00:17 | 39.63248 | -76.21586 | 16168 ft | 302 kts | 239° |
| 2026-04-26 00:17 | 39.62441 | -76.23113 | 15927 ft | 301 kts | 239° |
| 2026-04-26 00:17 | 39.61261 | -76.25342 | 15578 ft | 299 kts | 238° |
| 2026-04-26 00:18 | 39.60085 | -76.27561 | 15227 ft | 298 kts | 238° |
| 2026-04-26 00:18 | 39.58324 | -76.30291 | 14777 ft | 300 kts | 225° |
| 2026-04-26 00:18 | 39.56651 | -76.31914 | 14416 ft | 303 kts | 217° |
| 2026-04-26 00:18 | 39.55462 | -76.32943 | 14176 ft | 302 kts | 217° |
| 2026-04-26 00:19 | 39.53714 | -76.34459 | 13827 ft | 302 kts | 217° |
| 2026-04-26 00:19 | 39.51997 | -76.35950 | 13459 ft | 302 kts | 217° |
| 2026-04-26 00:19 | 39.50251 | -76.37466 | 13105 ft | 299 kts | 217° |
| 2026-04-26 00:19 | 39.48506 | -76.38982 | 12612 ft | 301 kts | 217° |
| 2026-04-26 00:20 | 39.46774 | -76.40487 | 12316 ft | 296 kts | 217° |
| 2026-04-26 00:20 | 39.45240 | -76.41815 | 12076 ft | 290 kts | 217° |
| 2026-04-26 00:20 | 39.43557 | -76.43269 | 11687 ft | 289 kts | 217° |
| 2026-04-26 00:20 | 39.41888 | -76.44713 | 11309 ft | 288 kts | 217° |
| 2026-04-26 00:21 | 39.40253 | -76.46130 | 11009 ft | 284 kts | 217° |
| 2026-04-26 00:21 | 39.38621 | -76.47543 | 10745 ft | 280 kts | 217° |
| 2026-04-26 00:21 | 39.36998 | -76.48953 | 10478 ft | 278 kts | 217° |
| 2026-04-26 00:21 | 39.35401 | -76.50344 | 10220 ft | 277 kts | 217° |
| 2026-04-26 00:22 | 39.33794 | -76.51739 | 10050 ft | 276 kts | 217° |
| 2026-04-26 00:22 | 39.32193 | -76.53124 | 10037 ft | 279 kts | 217° |
| 2026-04-26 00:22 | 39.30583 | -76.54514 | 10030 ft | 277 kts | 217° |
| 2026-04-26 00:22 | 39.29113 | -76.55785 | 10034 ft | 277 kts | 217° |
| 2026-04-26 00:23 | 39.27500 | -76.57179 | 10011 ft | 277 kts | 217° |
| 2026-04-26 00:23 | 39.26016 | -76.58461 | 10008 ft | 276 kts | 217° |
| 2026-04-26 00:23 | 39.24501 | -76.59764 | 10001 ft | 277 kts | 217° |
| 2026-04-26 00:23 | 39.22930 | -76.61116 | 10005 ft | 279 kts | 217° |
| 2026-04-26 00:24 | 39.21317 | -76.62504 | 10011 ft | 279 kts | 217° |
| 2026-04-26 00:24 | 39.19703 | -76.63893 | 9949 ft | 278 kts | 217° |
| 2026-04-26 00:24 | 39.18161 | -76.65219 | 9586 ft | 276 kts | 217° |
| 2026-04-26 00:24 | 39.16712 | -76.66586 | 9230 ft | 272 kts | 224° |
| 2026-04-26 00:25 | 39.15327 | -76.68232 | 8861 ft | 270 kts | 225° |
| 2026-04-26 00:25 | 39.13979 | -76.69835 | 8501 ft | 267 kts | 225° |
| 2026-04-26 00:25 | 39.12711 | -76.71339 | 8197 ft | 265 kts | 225° |
| 2026-04-26 00:25 | 39.11344 | -76.72958 | 7832 ft | 262 kts | 225° |
| 2026-04-26 00:26 | 39.10023 | -76.74522 | 7674 ft | 252 kts | 225° |
| 2026-04-26 00:26 | 39.08758 | -76.76020 | 7478 ft | 244 kts | 225° |
| 2026-04-26 00:26 | 39.07524 | -76.77479 | 7252 ft | 236 kts | 225° |
| 2026-04-26 00:26 | 39.06336 | -76.78881 | 6903 ft | 229 kts | 225° |
| 2026-04-26 00:27 | 39.05170 | -76.80260 | 6472 ft | 226 kts | 224° |
| 2026-04-26 00:27 | 39.04014 | -76.81628 | 6083 ft | 225 kts | 224° |
| 2026-04-26 00:27 | 39.02868 | -76.82982 | 6037 ft | 226 kts | 224° |
| 2026-04-26 00:27 | 39.01703 | -76.84357 | 6035 ft | 228 kts | 224° |
| 2026-04-26 00:28 | 39.00537 | -76.85731 | 6033 ft | 227 kts | 224° |
| 2026-04-26 00:28 | 38.99376 | -76.87101 | 5745 ft | 226 kts | 225° |
| 2026-04-26 00:28 | 38.98373 | -76.88650 | 5338 ft | 225 kts | 239° |
| 2026-04-26 00:28 | 38.97694 | -76.90452 | 4980 ft | 224 kts | 251° |
| 2026-04-26 00:29 | 38.97353 | -76.92434 | 4614 ft | 224 kts | 264° |
| 2026-04-26 00:29 | 38.97355 | -76.94444 | 4227 ft | 226 kts | 271° |
| 2026-04-26 00:29 | 38.97426 | -76.96419 | 4076 ft | 216 kts | 270° |
| 2026-04-26 00:29 | 38.97490 | -76.98305 | 3911 ft | 208 kts | 270° |
| 2026-04-26 00:30 | 38.97568 | -77.00167 | 3562 ft | 210 kts | 274° |
| 2026-04-26 00:30 | 38.97917 | -77.02000 | 3273 ft | 213 kts | 288° |
| 2026-04-26 00:30 | 38.98612 | -77.03688 | 3026 ft | 214 kts | 303° |
| 2026-04-26 00:30 | 38.99617 | -77.05124 | 3040 ft | 220 kts | 315° |
| 2026-04-26 00:31 | 39.00728 | -77.06464 | 3006 ft | 219 kts | 315° |
| 2026-04-26 00:31 | 39.01837 | -77.07803 | 3004 ft | 219 kts | 315° |
| 2026-04-26 00:31 | 39.02939 | -77.09130 | 3007 ft | 220 kts | 315° |
| 2026-04-26 00:31 | 39.04054 | -77.10479 | 3009 ft | 220 kts | 314° |
| 2026-04-26 00:32 | 39.05158 | -77.11843 | 3008 ft | 220 kts | 314° |
| 2026-04-26 00:32 | 39.06093 | -77.13370 | 3006 ft | 216 kts | 292° |
| 2026-04-26 00:32 | 39.05995 | -77.16962 | 2742 ft | 201 kts | 236° |
| 2026-04-26 00:33 | 39.05042 | -77.18239 | 2706 ft | 198 kts | 210° |
| 2026-04-26 00:33 | 39.03797 | -77.18833 | 2709 ft | 189 kts | 186° |
| 2026-04-26 00:33 | 39.02508 | -77.18693 | 2710 ft | 186 kts | 163° |
| 2026-04-26 00:33 | 39.01304 | -77.18032 | 2711 ft | 186 kts | 157° |
| 2026-04-26 00:34 | 39.00147 | -77.17374 | 2708 ft | 178 kts | 157° |
| 2026-04-26 00:34 | 38.99021 | -77.16738 | 2696 ft | 176 kts | 157° |
| 2026-04-26 00:34 | 38.97906 | -77.16112 | 2694 ft | 175 kts | 156° |
| 2026-04-26 00:34 | 38.96796 | -77.15483 | 2696 ft | 174 kts | 156° |
| 2026-04-26 00:35 | 38.95805 | -77.14565 | 2693 ft | 177 kts | 140° |
| 2026-04-26 00:35 | 38.94882 | -77.13534 | 2537 ft | 170 kts | 140° |
| 2026-04-26 00:35 | 38.94024 | -77.12579 | 2295 ft | 157 kts | 140° |
| 2026-04-26 00:35 | 38.93205 | -77.11712 | 2067 ft | 149 kts | 146° |
| 2026-04-26 00:36 | 38.92348 | -77.11022 | 1875 ft | 144 kts | 145° |
| 2026-04-26 00:36 | 38.91513 | -77.10335 | 1669 ft | 141 kts | 143° |
| 2026-04-26 00:36 | 38.90860 | -77.09431 | 1461 ft | 139 kts | 119° |
| 2026-04-26 00:36 | 38.90524 | -77.08336 | 1276 ft | 142 kts | 110° |
| 2026-04-26 00:37 | 38.90173 | -77.07155 | 1062 ft | 138 kts | 111° |
| 2026-04-26 00:37 | 38.89579 | -77.06202 | 858 ft | 139 kts | 137° |
| 2026-04-26 00:37 | 38.88842 | -77.05375 | 668 ft | 140 kts | 134° |
| 2026-04-26 00:37 | 38.88114 | -77.04552 | 480 ft | 139 kts | 134° |
| 2026-04-26 00:38 | 38.87267 | -77.04009 | 291 ft | 141 kts | 163° |
| 2026-04-26 00:38 | 38.86300 | -77.03887 | 87 ft | 144 kts | 171° |
| 2026-04-26 00:38 | 38.85432 | -77.03817 | 28 ft | 121 kts | 166° |
| 2026-04-26 00:38 | 38.84892 | -77.03743 | 23 ft | 30 kts | 178° |
| 2026-04-26 00:39 | 38.84730 | -77.03731 | 24 ft | 20 kts | 175° |
| 2026-04-26 00:39 | 38.84588 | -77.03715 | 24 ft | 21 kts | 175° |
| 2026-04-26 00:39 | 38.84444 | -77.03715 | 26 ft | 21 kts | 194° |
| 2026-04-26 00:39 | 38.84395 | -77.03775 | 26 ft | 0 kts | 257° |
| 2026-04-26 00:40 | 38.84394 | -77.03780 | 26 ft | 2 kts | 257° |
| 2026-04-26 00:40 | 38.84394 | -77.03799 | 26 ft | 2 kts | 277° |
| 2026-04-26 00:40 | 38.84415 | -77.03836 | 26 ft | 11 kts | 324° |
| 2026-04-26 00:40 | 38.84534 | -77.03858 | 24 ft | 21 kts | 0° |
| 2026-04-26 00:41 | 38.84685 | -77.03872 | 27 ft | 22 kts | 356° |
| 2026-04-26 00:41 | 38.84833 | -77.03888 | 22 ft | 19 kts | 353° |
| 2026-04-26 00:41 | 38.84828 | -77.03965 | 22 ft | 11 kts | 191° |
| 2026-04-26 00:41 | 38.84753 | -77.03979 | 23 ft | 11 kts | 193° |
| 2026-04-26 00:42 | 38.84693 | -77.04022 | 24 ft | 10 kts | 205° |
| 2026-04-26 00:42 | 38.84639 | -77.04072 | 26 ft | 9 kts | 237° |
| 2026-04-26 00:42 | 38.84655 | -77.04143 | 29 ft | 9 kts | 315° |
| 2026-04-26 00:42 | 38.84680 | -77.04192 | 25 ft | 3 kts | 297° |
| 2026-04-26 00:43 | 38.84680 | -77.04193 | 25 ft | 0 kts | 297° |